Time;durP1;ratioP1;P1;durP2;ratioP2;P2;SDS_P1;SDS_P2;PMS_P1;PMS_P2;Temp;Humidity;BMP_temperature;BMP_pressure;BME280_temperature;BME280_humidity;BME280_pressure;Samples;Min_cycle;Max_cycle;Signal;HPM_P1;HPM_P2
2023/07/31 00:01:47;;;;;;;4.00;1.90;;;18.80;99.90;;;19.48;100.00;97973.47;5021852;28;20796;-85
2023/07/31 00:04:18;;;;;;;2.40;1.77;;;18.80;99.90;;;19.47;100.00;97973.72;5020248;28;20491;-85
2023/07/31 00:06:48;;;;;;;5.53;2.00;;;18.70;99.90;;;19.46;100.00;97978.22;5022175;28;20473;-85
2023/07/31 00:09:19;;;;;;;12.30;2.53;;;18.80;99.90;;;19.50;100.00;97971.38;5023130;28;20457;-85
2023/07/31 00:11:49;;;;;;;5.73;1.60;;;18.70;99.90;;;19.46;100.00;97967.59;5021269;28;20473;-84
2023/07/31 00:14:19;;;;;;;3.27;1.50;;;18.80;99.90;;;19.40;100.00;97981.78;5022444;28;20835;-83
2023/07/31 00:16:49;;;;;;;4.50;1.83;;;18.80;99.90;;;19.39;100.00;97979.41;5022662;28;20461;-85
2023/07/31 00:19:22;;;;;;;7.40;2.00;;;18.80;99.90;;;19.40;100.00;97965.88;5022926;28;20551;-85
2023/07/31 00:21:52;;;;;;;3.67;1.97;;;18.80;99.90;;;19.38;100.00;97965.34;5022429;28;20981;-85
2023/07/31 00:24:22;;;;;;;7.90;1.90;;;18.70;99.90;;;19.36;100.00;97964.78;5021310;28;20550;-85
2023/07/31 00:26:53;;;;;;;7.93;2.03;;;18.80;99.90;;;19.38;100.00;97978.59;5021808;28;20462;-85
2023/07/31 00:29:24;;;;;;;7.73;2.60;;;18.60;99.90;;;19.44;100.00;97977.66;5022020;28;20466;-84
2023/07/31 00:31:55;;;;;;;7.33;2.53;;;18.70;99.90;;;19.44;100.00;97969.69;5024320;28;20827;-84
2023/07/31 00:34:26;;;;;;;6.13;2.40;;;18.60;99.90;;;19.39;100.00;97968.78;5022167;28;20833;-85
2023/07/31 00:36:56;;;;;;;3.93;1.90;;;18.80;99.90;;;19.35;100.00;97976.44;5023897;28;20454;-84
2023/07/31 00:39:26;;;;;;;5.73;2.00;;;18.80;99.90;;;19.39;100.00;97977.56;5021473;28;20499;-85
2023/07/31 00:41:55;;;;;;;6.90;2.30;;;18.70;99.90;;;19.39;100.00;97974.91;5021280;28;20493;-84
2023/07/31 00:44:25;;;;;;;8.10;2.37;;;18.70;99.90;;;19.36;100.00;97982.56;5019546;28;20489;-85
2023/07/31 00:46:55;;;;;;;3.20;1.80;;;18.80;99.90;;;19.39;100.00;97980.22;5023888;28;20466;-85
2023/07/31 00:49:27;;;;;;;3.30;2.03;;;18.70;99.90;;;19.42;100.00;97982.41;5020502;28;20466;-84
2023/07/31 00:51:57;;;;;;;5.73;1.60;;;18.70;99.90;;;19.39;100.00;97968.78;5020721;28;20466;-84
2023/07/31 00:54:28;;;;;;;4.70;1.93;;;18.80;99.90;;;19.43;100.00;97970.75;5021480;28;20500;-85
2023/07/31 00:57:00;;;;;;;4.20;2.40;;;18.70;99.90;;;19.36;100.00;97975.41;5021582;28;20476;-85
2023/07/31 00:59:30;;;;;;;5.23;1.90;;;18.80;99.90;;;19.35;100.00;97962.38;5022201;28;20473;-85
2023/07/31 01:02:00;;;;;;;10.83;2.37;;;18.80;99.90;;;19.30;100.00;97964.97;5022058;28;20466;-84
2023/07/31 01:04:31;;;;;;;5.53;2.27;;;18.80;99.90;;;19.32;100.00;97957.56;5019826;28;20503;-85
2023/07/31 01:07:12;;;;;;;11.63;2.00;;;18.60;99.90;;;19.35;100.00;97971.13;5020744;28;20474;-84
2023/07/31 01:09:55;;;;;;;4.80;2.30;;;18.70;99.90;;;19.36;100.00;97964.78;5021315;28;20544;-84
2023/07/31 01:12:29;;;;;;;5.60;2.40;;;18.60;99.90;;;19.39;100.00;97966.94;5023858;28;20484;-85
2023/07/31 01:15:10;;;;;;;3.73;1.90;;;18.60;99.90;;;19.32;100.00;97961.03;5020715;28;20478;-85
2023/07/31 01:17:41;;;;;;;5.10;2.03;;;18.70;99.90;;;19.34;100.00;97958.91;5021388;28;20462;-84
2023/07/31 01:20:18;;;;;;;7.87;2.27;;;18.70;99.90;;;19.34;100.00;97966.06;5022559;28;20470;-84
2023/07/31 01:23:24;;;;;;;9.97;2.10;;;18.60;99.90;;;19.29;100.00;97964.16;5021428;28;20469;-85
2023/07/31 01:26:06;;;;;;;5.97;2.47;;;18.60;99.90;;;19.31;100.00;97961.25;5019341;28;20497;-85
2023/07/31 01:28:52;;;;;;;5.70;2.33;;;18.50;99.90;;;19.36;100.00;97948.88;5021771;28;20544;-84
2023/07/31 01:31:27;;;;;;;4.87;2.53;;;18.50;99.90;;;19.36;100.00;97954.19;5028156;28;20456;-85
2023/07/31 01:34:01;;;;;;;8.53;2.70;;;18.50;99.90;;;19.38;100.00;97952.06;5028535;28;20466;-85
2023/07/31 01:36:32;;;;;;;11.00;2.77;;;18.50;99.90;;;19.38;100.00;97945.97;5027728;28;21030;-85
2023/07/31 01:39:03;;;;;;;7.53;1.87;;;18.50;99.90;;;19.36;100.00;97948.88;5028358;28;20469;-85
2023/07/31 01:41:34;;;;;;;8.03;2.47;;;18.50;99.90;;;19.36;100.00;97938.28;5028052;28;20478;-84
2023/07/31 01:44:05;;;;;;;4.93;2.10;;;18.60;99.90;;;19.36;100.00;97938.28;5027073;28;20474;-85
2023/07/31 01:46:35;;;;;;;3.03;2.00;;;18.50;99.90;;;19.35;100.00;97928.69;5027543;28;20457;-84
2023/07/31 01:49:06;;;;;;;10.30;2.13;;;18.50;99.90;;;19.34;100.00;97924.44;5026518;28;20466;-85
2023/07/31 01:51:38;;;;;;;7.43;2.17;;;18.50;99.90;;;19.31;100.00;97924.94;5024653;28;20462;-85
2023/07/31 01:54:08;;;;;;;4.30;2.07;;;18.50;99.90;;;19.32;100.00;97915.94;5027394;28;20485;-85
2023/07/31 01:56:40;;;;;;;11.77;1.93;;;18.50;99.90;;;19.27;100.00;97918.50;5026616;28;20457;-84
2023/07/31 01:59:11;;;;;;;6.00;2.60;;;18.50;99.90;;;19.26;100.00;97926.72;5027785;28;20491;-85
2023/07/31 02:01:41;;;;;;;6.50;1.90;;;18.50;99.90;;;19.18;100.00;97927.94;5027424;28;20462;-84
2023/07/31 02:04:11;;;;;;;5.90;2.23;;;18.50;99.90;;;19.15;100.00;97923.13;5025648;28;20912;-84
2023/07/31 02:06:43;;;;;;;9.27;2.70;;;18.50;99.90;;;19.11;100.00;97919.38;5026942;28;21299;-85
2023/07/31 02:09:13;;;;;;;6.30;2.30;;;18.50;99.90;;;19.11;100.00;97919.38;5027209;28;20497;-85
2023/07/31 02:11:44;;;;;;;5.07;2.10;;;18.50;99.90;;;19.11;100.00;97922.00;5026442;28;20973;-84
2023/07/31 02:14:17;;;;;;;5.80;2.73;;;18.40;99.90;;;19.16;100.00;97911.47;5028813;28;20466;-85
2023/07/31 02:16:47;;;;;;;5.60;2.03;;;18.30;99.90;;;19.13;100.00;97914.59;5027283;28;20478;-84
2023/07/31 02:19:18;;;;;;;5.77;2.17;;;18.30;99.90;;;19.07;100.00;97920.91;5026877;28;20463;-85
2023/07/31 02:21:47;;;;;;;5.20;2.60;;;18.30;99.90;;;19.03;100.00;97922.41;5026932;28;21003;-85
2023/07/31 02:24:17;;;;;;;4.17;1.90;;;18.30;99.90;;;19.00;100.00;97922.91;5025785;28;20894;-85
2023/07/31 02:26:47;;;;;;;5.80;1.90;;;18.30;99.90;;;18.99;100.00;97922.09;5026610;28;21199;-84
2023/07/31 02:29:18;;;;;;;5.37;2.40;;;18.30;99.90;;;19.02;100.00;97915.53;5025026;28;20468;-85
2023/07/31 02:31:47;;;;;;;6.50;2.27;;;18.20;99.90;;;19.00;100.00;97914.97;5025861;28;20465;-84
2023/07/31 02:34:17;;;;;;;8.03;2.57;;;18.20;99.90;;;18.95;100.00;97914.91;5025772;28;20516;-84
2023/07/31 02:36:47;;;;;;;4.83;2.00;;;18.20;99.90;;;18.85;100.00;97915.53;5023896;28;20462;-85
2023/07/31 02:39:16;;;;;;;7.10;2.20;;;18.30;99.90;;;18.78;100.00;97919.44;5026336;28;21574;-85
2023/07/31 02:41:48;;;;;;;4.43;2.43;;;18.20;99.90;;;18.80;100.00;97915.47;5020382;28;20785;-85
2023/07/31 02:44:18;;;;;;;4.30;2.30;;;18.20;99.90;;;18.80;100.00;97910.19;5020969;28;20481;-85
2023/07/31 02:46:48;;;;;;;8.63;2.03;;;18.10;99.90;;;18.85;100.00;97904.94;5025118;28;21100;-85
2023/07/31 02:49:19;;;;;;;4.40;2.20;;;18.10;99.90;;;18.82;100.00;97900.13;5020964;28;20469;-85
2023/07/31 02:51:49;;;;;;;9.43;3.17;;;18.10;99.90;;;18.78;100.00;97898.22;5020094;28;20472;-86
2023/07/31 02:54:21;;;;;;;8.77;2.60;;;18.10;99.90;;;18.79;100.00;97911.22;5020937;28;20536;-85
2023/07/31 02:56:53;;;;;;;4.70;2.57;;;18.00;99.90;;;18.79;100.00;97913.06;5022034;28;20466;-84
2023/07/31 02:59:23;;;;;;;7.20;2.53;;;18.00;99.90;;;18.72;100.00;97907.94;5017195;28;20524;-85
2023/07/31 03:01:52;;;;;;;8.47;2.27;;;18.00;99.90;;;18.78;100.00;97917.56;5021426;28;20541;-85
2023/07/31 03:04:22;;;;;;;5.93;2.23;;;17.90;99.90;;;18.80;100.00;97909.38;5020822;28;20634;-85
2023/07/31 03:06:51;;;;;;;7.93;2.53;;;17.90;99.90;;;18.78;100.00;97909.59;5021746;28;20494;-84
2023/07/31 03:09:20;;;;;;;5.13;2.50;;;17.90;99.90;;;18.76;100.00;97910.91;5021914;28;20590;-85
2023/07/31 03:11:52;;;;;;;7.53;1.97;;;17.90;99.90;;;18.75;100.00;97914.59;5021399;28;20465;-85
2023/07/31 03:14:22;;;;;;;8.43;1.97;;;17.90;99.90;;;18.75;100.00;97904.78;5024351;28;20482;-84
2023/07/31 03:16:52;;;;;;;5.13;2.10;;;17.90;99.90;;;18.67;100.00;97912.38;5021650;28;21088;-84
2023/07/31 03:19:23;;;;;;;5.63;1.97;;;17.90;99.90;;;18.57;100.00;97915.63;5026089;28;20497;-85
2023/07/31 03:21:53;;;;;;;16.27;3.00;;;17.90;99.90;;;18.57;100.00;97913.78;5023918;28;20890;-84
2023/07/31 03:24:23;;;;;;;4.60;2.10;;;17.90;99.90;;;18.58;100.00;97915.41;5022150;28;20986;-84
2023/07/31 03:26:54;;;;;;;6.80;2.70;;;17.80;99.90;;;18.58;100.00;97910.09;5022633;28;20502;-85
2023/07/31 03:29:25;;;;;;;15.23;3.20;;;17.80;99.90;;;18.56;100.00;97906.09;5023539;28;20466;-85
2023/07/31 03:31:56;;;;;;;6.07;2.50;;;17.70;99.90;;;18.51;100.00;97903.34;5022756;28;20458;-85
2023/07/31 03:34:26;;;;;;;5.50;2.23;;;17.70;99.90;;;18.51;100.00;97903.34;5023939;28;20454;-85
2023/07/31 03:36:57;;;;;;;4.80;1.93;;;17.70;99.90;;;18.52;100.00;97908.44;5021745;28;20830;-85
2023/07/31 03:39:26;;;;;;;6.60;2.17;;;17.60;99.90;;;18.49;100.00;97905.44;5025149;28;20829;-85
2023/07/31 03:41:58;;;;;;;7.03;2.90;;;17.60;99.90;;;18.43;100.00;97901.88;5023969;28;20548;-85
2023/07/31 03:44:28;;;;;;;6.83;2.37;;;17.60;99.90;;;18.41;100.00;97911.91;5023417;28;20949;-85
2023/07/31 03:46:58;;;;;;;17.20;2.90;;;17.60;99.90;;;18.42;100.00;97902.94;5023440;28;20505;-84
2023/07/31 03:49:28;;;;;;;8.07;2.37;;;17.50;99.90;;;18.39;100.00;97906.06;5024548;28;20474;-85
2023/07/31 03:51:57;;;;;;;8.90;3.03;;;17.50;99.90;;;18.36;100.00;97903.09;5024300;28;20462;-85
2023/07/31 03:54:26;;;;;;;6.90;4.03;;;17.50;99.90;;;18.36;100.00;97908.41;5022238;28;20488;-84
2023/07/31 03:56:58;;;;;;;10.40;2.73;;;17.40;99.90;;;18.38;100.00;97901.00;5020836;28;20877;-84
2023/07/31 03:59:28;;;;;;;7.40;2.33;;;17.40;99.90;;;18.35;100.00;97894.34;5019974;28;20482;-85
2023/07/31 04:01:59;;;;;;;3.63;2.03;;;17.40;99.90;;;18.31;100.00;97890.56;5021982;28;21006;-86
2023/07/31 04:04:28;;;;;;;6.70;2.47;;;17.40;99.90;;;18.26;100.00;97890.47;5021181;28;20455;-84
2023/07/31 04:06:59;;;;;;;10.00;2.63;;;17.40;99.90;;;18.27;100.00;97892.09;5020544;28;21297;-85
2023/07/31 04:09:29;;;;;;;9.70;2.50;;;17.30;99.90;;;18.21;100.00;97886.97;5021818;28;20532;-85
2023/07/31 04:12:01;;;;;;;9.60;2.77;;;17.40;99.90;;;18.24;100.00;97884.63;5021811;28;20473;-84
2023/07/31 04:14:32;;;;;;;4.63;2.00;;;17.40;99.90;;;18.25;100.00;97878.31;5021171;28;20478;-84
2023/07/31 04:17:04;;;;;;;12.87;2.77;;;17.40;99.90;;;18.23;100.00;97874.28;5024903;28;20462;-84
2023/07/31 04:19:34;;;;;;;4.23;2.37;;;17.40;99.90;;;18.23;100.00;97869.78;5021928;28;20469;-85
2023/07/31 04:22:04;;;;;;;5.27;2.33;;;17.40;99.90;;;18.19;100.00;97865.22;5022336;28;20492;-85
2023/07/31 04:24:34;;;;;;;5.90;2.63;;;17.40;99.90;;;18.19;100.00;97863.34;5022569;28;20476;-85
2023/07/31 04:27:07;;;;;;;4.20;2.40;;;17.40;99.90;;;18.20;100.00;97864.97;5021869;28;20521;-85
2023/07/31 04:29:36;;;;;;;7.00;2.33;;;17.40;99.90;;;18.22;100.00;97867.41;5023955;28;20471;-85
2023/07/31 04:32:08;;;;;;;7.03;2.50;;;17.30;99.90;;;18.24;100.00;97867.94;5023625;28;20470;-84
2023/07/31 04:34:38;;;;;;;6.87;2.57;;;17.30;99.90;;;18.25;100.00;97861.63;5022503;28;20525;-86
2023/07/31 04:37:09;;;;;;;8.80;2.17;;;17.40;99.90;;;18.20;100.00;97866.81;5024278;28;20465;-84
2023/07/31 04:39:40;;;;;;;5.80;2.23;;;17.40;99.90;;;18.16;100.00;97868.31;5022258;28;20466;-85
2023/07/31 04:42:10;;;;;;;6.67;2.53;;;17.40;99.90;;;18.09;100.00;97871.13;5023290;28;20492;-85
2023/07/31 04:44:39;;;;;;;4.37;2.13;;;17.50;99.90;;;17.90;100.00;97870.56;5022871;28;20458;-85
2023/07/31 04:47:09;;;;;;;16.47;2.67;;;17.50;99.90;;;17.95;100.00;97880.41;5023021;28;20493;-84
2023/07/31 04:49:39;;;;;;;7.57;2.47;;;17.30;99.90;;;18.00;100.00;97870.75;5021855;28;20520;-84
2023/07/31 04:52:10;;;;;;;9.67;2.50;;;17.30;99.90;;;18.01;100.00;97868.91;5023462;28;20962;-84
2023/07/31 04:54:40;;;;;;;7.97;2.50;;;17.30;99.90;;;18.07;100.00;97866.09;5022670;28;20476;-85
2023/07/31 04:57:12;;;;;;;8.57;2.30;;;17.30;99.90;;;18.13;100.00;97872.25;5022995;28;20470;-85
2023/07/31 04:59:41;;;;;;;6.80;3.43;;;17.20;99.90;;;18.17;100.00;97862.00;5021707;28;20499;-84
2023/07/31 05:02:14;;;;;;;2.87;2.03;;;17.20;99.90;;;18.08;100.00;97858.97;5022051;28;20530;-85
2023/07/31 05:04:44;;;;;;;7.13;2.53;;;17.30;99.90;;;18.04;100.00;97865.78;5020478;28;20474;-84
2023/07/31 05:07:13;;;;;;;9.33;2.47;;;17.40;99.90;;;18.09;100.00;97857.91;5021644;28;20628;-85
2023/07/31 05:09:45;;;;;;;6.60;2.53;;;17.40;99.90;;;18.07;100.00;97858.16;5020110;28;20469;-85
2023/07/31 05:12:17;;;;;;;4.77;2.50;;;17.40;99.90;;;18.05;100.00;97856.75;5021221;28;20473;-85
2023/07/31 05:14:47;;;;;;;3.40;2.07;;;17.40;99.90;;;18.04;100.00;97852.53;5020206;28;21382;-85
2023/07/31 05:17:17;;;;;;;6.57;1.90;;;17.40;99.90;;;18.08;100.00;97848.38;5023113;28;20469;-85
2023/07/31 05:19:48;;;;;;;11.30;3.83;;;17.40;99.90;;;18.06;100.00;97848.59;5022450;28;20513;-85
2023/07/31 05:22:18;;;;;;;9.43;2.73;;;17.40;99.90;;;18.08;100.00;97851.03;5022559;28;20548;-85
2023/07/31 05:24:49;;;;;;;4.90;2.30;;;17.30;99.90;;;18.06;100.00;97838.00;5022476;28;20519;-85
2023/07/31 05:27:22;;;;;;;7.40;2.40;;;17.30;99.90;;;18.07;100.00;97847.56;5021591;28;20563;-84
2023/07/31 05:29:53;;;;;;;7.60;2.63;;;17.30;99.90;;;18.06;100.00;97847.78;5024061;28;20462;-85
2023/07/31 05:32:23;;;;;;;15.10;3.03;;;17.40;99.90;;;18.01;100.00;97840.56;5022892;28;21024;-84
2023/07/31 05:34:54;;;;;;;6.50;2.07;;;17.40;99.90;;;17.94;100.00;97839.94;5024090;28;20458;-85
2023/07/31 05:37:23;;;;;;;4.80;2.10;;;17.50;99.90;;;17.93;100.00;97833.03;5022613;28;20471;-85
2023/07/31 05:39:53;;;;;;;8.27;2.80;;;17.40;99.90;;;18.00;100.00;97848.75;5024831;28;20480;-85
2023/07/31 05:42:24;;;;;;;9.93;2.60;;;17.40;99.90;;;18.00;100.00;97840.81;5019477;28;21125;-84
2023/07/31 05:44:54;;;;;;;3.53;2.20;;;17.50;99.90;;;18.07;100.00;97828.22;5022180;28;20468;-84
2023/07/31 05:47:25;;;;;;;6.60;2.70;;;17.40;99.90;;;18.15;100.00;97822.56;5018020;28;20549;-85
2023/07/31 05:49:55;;;;;;;9.30;2.03;;;17.40;99.90;;;18.16;100.00;97823.34;5017662;28;21055;-84
2023/07/31 05:52:24;;;;;;;6.57;2.10;;;17.40;99.90;;;18.19;100.00;97825.53;5018887;28;20466;-85
2023/07/31 05:54:54;;;;;;;4.50;2.47;;;17.50;99.90;;;18.17;100.00;97838.19;5019322;28;20462;-85
2023/07/31 05:57:26;;;;;;;5.00;2.60;;;17.50;99.90;;;18.23;100.00;97829.28;5018948;28;20458;-85
2023/07/31 05:59:55;;;;;;;6.50;2.33;;;17.50;99.90;;;18.21;100.00;97829.53;5020032;28;20465;-83
2023/07/31 06:02:25;;;;;;;7.00;3.07;;;17.50;99.90;;;18.21;100.00;97826.88;5017508;28;20472;-84
2023/07/31 06:04:56;;;;;;;3.97;2.30;;;17.60;99.90;;;18.22;100.00;97822.38;5019421;28;20889;-84
2023/07/31 06:07:27;;;;;;;3.00;1.80;;;17.50;99.90;;;18.20;100.00;97822.63;5019487;28;20560;-85
2023/07/31 06:10:02;;;;;;;4.20;2.57;;;17.50;99.90;;;18.21;100.00;97834.81;5017779;28;20466;-84
2023/07/31 06:12:34;;;;;;;4.17;2.30;;;17.50;99.90;;;18.19;100.00;97826.31;5016912;28;20458;-85
2023/07/31 06:15:05;;;;;;;9.27;2.70;;;17.60;99.90;;;18.15;100.00;97834.97;5017963;28;20474;-84
2023/07/31 06:17:36;;;;;;;4.37;2.63;;;17.40;99.90;;;18.16;100.00;97840.03;5021222;28;20497;-86
2023/07/31 06:20:07;;;;;;;7.03;2.13;;;17.50;99.90;;;18.13;100.00;97835.22;5023176;28;20900;-85
2023/07/31 06:22:38;;;;;;;3.27;2.10;;;17.40;99.90;;;18.10;100.00;97827.75;5020256;28;20462;-86
2023/07/31 06:25:10;;;;;;;8.30;2.70;;;17.50;99.90;;;18.13;100.00;97826.47;5019849;28;20952;-85
2023/07/31 06:27:46;;;;;;;8.87;2.60;;;17.50;99.90;;;18.16;100.00;97820.69;5023426;28;20864;-85
2023/07/31 06:30:15;;;;;;;5.37;2.17;;;17.50;99.90;;;18.18;100.00;97823.91;5025605;28;20458;-86
2023/07/31 06:32:46;;;;;;;10.63;2.50;;;17.50;99.90;;;18.07;100.00;97826.41;5023011;28;20462;-85
2023/07/31 06:35:17;;;;;;;8.00;2.73;;;17.70;99.90;;;18.15;100.00;97834.97;5022804;28;20495;-85
2023/07/31 06:37:47;;;;;;;8.13;2.63;;;17.50;99.90;;;18.14;100.00;97834.19;5024803;28;20483;-85
2023/07/31 06:40:19;;;;;;;5.50;2.27;;;17.50;99.90;;;18.11;100.00;97824.06;5026515;28;20466;-85
2023/07/31 06:42:49;;;;;;;5.40;2.47;;;17.60;99.90;;;18.16;100.00;97820.69;5023844;28;20908;-85
2023/07/31 06:45:19;;;;;;;12.87;2.17;;;17.60;99.90;;;18.23;100.00;97822.13;5022744;28;20498;-85
2023/07/31 06:47:50;;;;;;;4.07;2.13;;;17.60;99.90;;;18.27;100.00;97817.97;5023140;28;20533;-85
2023/07/31 06:50:21;;;;;;;3.37;2.03;;;17.60;99.90;;;18.34;100.00;97810.66;5024528;28;20470;-86
2023/07/31 06:52:52;;;;;;;6.50;2.37;;;17.70;99.90;;;18.43;100.00;97801.25;5024017;28;20498;-85
2023/07/31 06:55:24;;;;;;;4.40;2.13;;;17.70;99.90;;;18.48;100.00;97809.28;5023780;28;20454;-86
2023/07/31 06:57:56;;;;;;;6.77;3.00;;;17.70;99.90;;;18.52;100.00;97804.34;5025316;28;21032;-86
2023/07/31 07:00:27;;;;;;;7.63;2.60;;;17.90;99.90;;;18.57;100.00;97804.38;5026373;28;20445;-87
2023/07/31 07:02:57;;;;;;;7.77;2.60;;;18.00;99.90;;;18.65;100.00;97809.28;5023632;28;20543;-86
2023/07/31 07:05:32;;;;;;;5.37;1.97;;;18.00;99.90;;;18.72;100.00;97790.56;5023706;28;20474;-85
2023/07/31 07:08:03;;;;;;;9.57;2.73;;;18.10;99.90;;;18.74;100.00;97796.44;5024704;28;20588;-87
2023/07/31 07:10:33;;;;;;;5.90;2.27;;;18.10;99.90;;;18.75;100.00;97798.00;5026619;28;20461;-86
2023/07/31 07:13:04;;;;;;;8.33;2.37;;;18.10;99.90;;;18.79;100.00;97791.19;5023340;28;20476;-86
2023/07/31 07:15:35;;;;;;;2.97;2.03;;;18.10;99.90;;;18.82;100.00;97793.34;5025049;28;21169;-85
2023/07/31 07:18:05;;;;;;;7.03;2.73;;;18.10;99.90;;;18.88;100.00;97797.69;5025030;28;20965;-86
2023/07/31 07:20:38;;;;;;;3.97;2.33;;;18.10;99.90;;;18.96;100.00;97798.03;5024797;28;20458;-85
2023/07/31 07:23:07;;;;;;;3.87;2.17;;;18.20;99.90;;;18.97;100.00;97802.28;5022770;28;20470;-85
2023/07/31 07:25:40;;;;;;;5.60;2.73;;;18.30;99.90;;;19.03;100.00;97787.25;5022482;28;20556;-86
2023/07/31 07:28:11;;;;;;;6.77;2.60;;;18.40;99.90;;;19.11;100.00;97797.41;5021756;28;20520;-85
2023/07/31 07:30:42;;;;;;;6.90;2.10;;;18.40;99.90;;;19.12;100.00;97793.72;5024137;28;20512;-85
2023/07/31 07:33:12;;;;;;;6.67;2.40;;;18.30;99.90;;;19.15;100.00;97795.06;5023444;28;20466;-84
2023/07/31 07:35:43;;;;;;;8.43;2.77;;;18.40;99.90;;;19.15;100.00;97787.13;5020770;28;20533;-85
2023/07/31 07:38:15;;;;;;;5.00;1.90;;;18.40;99.90;;;19.16;100.00;97783.44;5019883;28;20466;-85
2023/07/31 07:40:46;;;;;;;5.33;2.73;;;18.50;99.90;;;19.23;100.00;97773.44;5021146;28;20463;-84
2023/07/31 07:43:17;;;;;;;10.43;2.17;;;18.50;99.90;;;19.27;100.00;97785.94;5018199;28;20459;-86
2023/07/31 07:45:48;;;;;;;4.30;2.60;;;18.50;99.90;;;19.27;100.00;97777.97;5021351;28;21008;-85
2023/07/31 07:48:18;;;;;;;7.23;2.83;;;18.70;99.90;;;19.31;100.00;97772.97;5019423;28;20498;-85
2023/07/31 07:50:47;;;;;;;6.83;2.10;;;18.60;99.90;;;19.27;100.00;97780.63;5018156;28;20847;-85
2023/07/31 07:53:18;;;;;;;3.00;1.90;;;18.50;99.90;;;19.32;100.00;97767.44;5019849;28;20485;-85
2023/07/31 07:55:48;;;;;;;5.20;2.40;;;18.60;99.90;;;19.30;100.00;97777.47;5020581;28;20458;-85
2023/07/31 07:58:19;;;;;;;10.50;4.97;;;18.70;99.90;;;19.33;100.00;97781.50;5018818;28;20802;-84
2023/07/31 08:00:51;;;;;;;12.37;2.93;;;18.70;99.90;;;19.37;100.00;97769.31;5020374;28;20462;-85
2023/07/31 08:03:21;;;;;;;7.83;2.60;;;18.70;99.90;;;19.36;100.00;97767.72;5017923;28;20520;-84
2023/07/31 08:05:51;;;;;;;7.27;2.70;;;18.80;99.90;;;19.36;100.00;97757.94;5019247;28;20525;-83
2023/07/31 08:08:22;;;;;;;9.63;2.23;;;18.70;99.90;;;19.41;100.00;97759.84;5020355;28;21093;-85
2023/07/31 08:10:52;;;;;;;8.00;2.43;;;18.70;99.90;;;19.44;100.00;97754.84;5018262;28;20486;-85
2023/07/31 08:13:23;;;;;;;7.47;2.80;;;18.80;99.90;;;19.48;100.00;97745.34;5019245;28;20458;-85
2023/07/31 08:15:53;;;;;;;6.17;2.93;;;18.80;99.90;;;19.54;100.00;97735.59;5020022;28;20471;-85
2023/07/31 08:18:22;;;;;;;34.87;13.63;;;18.90;99.90;;;19.58;100.00;97737.47;5019388;28;20537;-84
2023/07/31 08:20:52;;;;;;;5.50;2.63;;;18.90;99.90;;;19.62;100.00;97739.63;5019222;28;20957;-85
2023/07/31 08:23:23;;;;;;;4.63;2.53;;;19.00;99.90;;;19.61;100.00;97744.13;5020620;28;20834;-85
2023/07/31 08:25:52;;;;;;;9.93;2.97;;;19.10;99.90;;;19.65;100.00;97739.09;5020847;28;21649;-85
2023/07/31 08:28:23;;;;;;;7.50;3.10;;;19.00;99.90;;;19.71;100.00;97728.31;5019162;28;20883;-85
2023/07/31 08:30:53;;;;;;;4.93;2.17;;;19.20;99.90;;;19.73;100.00;97720.88;5017852;28;20465;-85
2023/07/31 08:33:22;;;;;;;8.70;2.90;;;19.00;99.90;;;19.81;100.00;97723.06;5018613;28;25706;-85
2023/07/31 08:35:54;;;;;;;9.30;2.13;;;19.20;99.90;;;19.90;100.00;97720.75;5019043;28;20489;-84
2023/07/31 08:38:25;;;;;;;7.47;2.33;;;19.20;99.90;;;19.96;100.00;97728.47;5018644;28;20469;-85
2023/07/31 08:40:57;;;;;;;4.40;2.37;;;19.30;99.90;;;20.05;100.00;97740.25;5019503;28;20465;-84
2023/07/31 08:43:29;;;;;;;6.80;2.33;;;19.40;99.90;;;20.09;100.00;97735.22;5019577;28;20450;-85
2023/07/31 08:45:59;;;;;;;5.67;2.63;;;19.40;99.90;;;20.13;100.00;97741.63;5018286;28;20468;-84
2023/07/31 08:48:32;;;;;;;3.70;2.30;;;19.50;99.90;;;20.10;100.00;97737.63;5017302;28;20505;-85
2023/07/31 08:51:02;;;;;;;6.10;1.90;;;19.50;99.90;;;20.06;100.00;97733.09;5019375;28;20465;-84
2023/07/31 08:53:32;;;;;;;4.80;1.90;;;19.30;99.90;;;20.14;100.00;97731.78;5019036;28;20501;-84
2023/07/31 08:56:04;;;;;;;8.83;3.27;;;19.50;99.90;;;20.17;100.00;97734.72;5021350;28;20478;-84
2023/07/31 08:58:38;;;;;;;5.30;3.50;;;19.50;99.90;;;20.19;100.00;97722.00;5017987;28;20827;-83
2023/07/31 09:01:10;;;;;;;5.63;2.40;;;19.60;99.90;;;20.20;100.00;97720.94;5018556;28;20856;-84
2023/07/31 09:03:42;;;;;;;4.13;2.50;;;19.50;99.90;;;20.21;100.00;97717.25;5017477;28;20470;-84
2023/07/31 09:06:20;;;;;;;12.27;2.57;;;19.60;99.90;;;20.27;100.00;97721.53;5019699;28;20561;-84
2023/07/31 09:08:51;;;;;;;5.37;2.33;;;19.70;99.90;;;20.31;100.00;97729.81;5019644;28;20531;-84
2023/07/31 09:11:23;;;;;;;8.93;2.60;;;19.70;99.90;;;20.32;100.00;97708.31;5018436;28;20471;-84
2023/07/31 09:14:01;;;;;;;4.90;1.83;;;19.80;99.90;;;20.30;100.00;97720.25;5018570;28;20800;-84
2023/07/31 09:16:31;;;;;;;5.67;2.60;;;19.80;99.90;;;20.33;100.00;97715.22;5019142;28;20474;-84
2023/07/31 09:19:03;;;;;;;9.27;2.50;;;19.60;99.90;;;20.40;100.00;97710.47;5017415;28;20466;-84
2023/07/31 09:21:33;;;;;;;4.83;2.70;;;19.70;99.90;;;20.40;100.00;97707.03;5016778;28;20481;-84
2023/07/31 09:24:02;;;;;;;8.00;3.07;;;19.90;99.90;;;20.48;100.00;97701.19;5016970;28;20470;-84
2023/07/31 09:26:35;;;;;;;5.73;3.00;;;19.90;99.90;;;20.50;100.00;97699.91;5019057;28;20955;-84
2023/07/31 09:29:20;;;;;;;7.00;2.33;;;19.90;99.90;;;20.51;100.00;97706.78;5016680;28;20500;-84
2023/07/31 09:31:50;;;;;;;4.50;2.70;;;19.90;99.90;;;20.59;100.00;97708.16;5019764;28;20470;-84
2023/07/31 09:34:20;;;;;;;5.30;2.60;;;20.00;99.90;;;20.63;100.00;97711.09;5015834;28;20524;-84
2023/07/31 09:36:53;;;;;;;5.20;2.13;;;19.90;99.90;;;20.63;100.00;97703.13;5017251;28;20458;-84
2023/07/31 09:39:24;;;;;;;4.93;3.17;;;20.10;99.90;;;20.65;100.00;97712.47;5016900;28;20849;-87
2023/07/31 09:41:56;;;;;;;4.60;2.47;;;20.10;99.90;;;20.68;100.00;97705.81;5018431;28;20978;-84
2023/07/31 09:44:41;;;;;;;4.30;2.07;;;20.10;99.90;;;20.76;100.00;97707.97;5017232;28;20489;-84
2023/07/31 09:47:24;;;;;;;4.43;2.23;;;20.20;99.90;;;20.73;100.00;97692.53;5016232;28;21205;-83
2023/07/31 09:49:55;;;;;;;6.30;2.60;;;20.30;99.90;;;20.80;100.00;97701.06;5018078;28;20486;-84
2023/07/31 09:52:28;;;;;;;8.63;2.90;;;20.20;99.90;;;20.82;100.00;97701.63;5022251;28;20488;-84
2023/07/31 09:54:57;;;;;;;3.97;2.77;;;20.20;99.90;;;20.77;100.00;97714.88;5021010;28;20461;-83
2023/07/31 09:57:29;;;;;;;5.00;2.60;;;20.20;99.90;;;20.73;100.00;97713.81;5023490;28;20976;-85
2023/07/31 10:00:01;;;;;;;6.57;2.40;;;20.10;99.90;;;20.81;100.00;97718.63;5021911;28;20552;-85
2023/07/31 10:02:33;;;;;;;9.30;4.43;;;20.10;99.90;;;20.82;100.00;97723.69;5020174;28;20470;-84
2023/07/31 10:05:07;;;;;;;7.00;2.67;;;20.10;99.90;;;20.74;100.00;97710.09;5023411;28;20965;-84
2023/07/31 10:07:40;;;;;;;4.97;2.43;;;20.30;99.90;;;20.75;100.00;97706.38;5024679;28;20454;-84
2023/07/31 10:10:11;;;;;;;14.43;2.77;;;20.20;99.90;;;20.80;100.00;97701.06;5022708;28;20494;-84
2023/07/31 10:12:41;;;;;;;5.20;2.87;;;20.20;99.90;;;20.86;100.00;97698.16;5024887;28;20485;-85
2023/07/31 10:15:14;;;;;;;5.80;3.10;;;20.40;99.90;;;20.94;100.00;97697.66;5023696;28;20491;-84
2023/07/31 10:17:43;;;;;;;4.43;2.67;;;20.40;99.90;;;20.96;100.00;97684.13;5024517;28;20465;-84
2023/07/31 10:20:16;;;;;;;7.20;2.53;;;20.40;99.90;;;21.02;100.00;97685.72;5023996;28;20525;-84
2023/07/31 10:22:47;;;;;;;6.47;2.77;;;20.50;99.90;;;21.14;100.00;97683.63;5020590;28;20463;-84
2023/07/31 10:25:17;;;;;;;6.43;2.50;;;20.60;99.90;;;21.18;100.00;97674.06;5020500;28;20558;-86
2023/07/31 10:27:50;;;;;;;6.33;2.80;;;20.60;99.90;;;21.24;100.00;97674.91;5021944;28;20458;-84
2023/07/31 10:30:26;;;;;;;27.87;15.67;;;20.60;99.90;;;21.35;100.00;97666.66;5024131;28;20894;-84